sensor_id;sensor_type;location;lat;lon;timestamp;P1;durP1;ratioP1;P2;durP2;ratioP2
64738;SDS011;51175;51.186;0.276;2023-03-12T00:00:03;4.70;;;3.15;;
64738;SDS011;51175;51.186;0.276;2023-03-12T00:00:38;3.90;;;3.53;;
64738;SDS011;51175;51.186;0.276;2023-03-12T00:01:16;4.50;;;3.47;;
64738;SDS011;51175;51.186;0.276;2023-03-12T00:01:48;3.20;;;2.90;;
64738;SDS011;51175;51.186;0.276;2023-03-12T00:02:19;4.70;;;3.80;;
64738;SDS011;51175;51.186;0.276;2023-03-12T00:02:50;4.28;;;3.25;;
64738;SDS011;51175;51.186;0.276;2023-03-12T00:03:20;5.28;;;3.88;;
64738;SDS011;51175;51.186;0.276;2023-03-12T00:03:51;4.25;;;3.28;;
64738;SDS011;51175;51.186;0.276;2023-03-12T00:04:22;5.15;;;3.95;;
64738;SDS011;51175;51.186;0.276;2023-03-12T00:04:53;4.15;;;2.95;;
64738;SDS011;51175;51.186;0.276;2023-03-12T00:05:24;4.68;;;3.58;;
64738;SDS011;51175;51.186;0.276;2023-03-12T00:05:55;5.20;;;3.42;;
64738;SDS011;51175;51.186;0.276;2023-03-12T00:06:25;4.97;;;3.42;;
64738;SDS011;51175;51.186;0.276;2023-03-12T00:06:56;3.90;;;3.42;;
64738;SDS011;51175;51.186;0.276;2023-03-12T00:07:26;4.45;;;3.20;;
64738;SDS011;51175;51.186;0.276;2023-03-12T00:07:57;4.63;;;3.55;;
64738;SDS011;51175;51.186;0.276;2023-03-12T00:08:28;4.30;;;3.67;;
64738;SDS011;51175;51.186;0.276;2023-03-12T00:08:59;3.90;;;3.30;;
64738;SDS011;51175;51.186;0.276;2023-03-12T00:09:33;3.50;;;2.83;;
64738;SDS011;51175;51.186;0.276;2023-03-12T00:10:05;4.80;;;3.28;;
64738;SDS011;51175;51.186;0.276;2023-03-12T00:10:37;5.43;;;3.53;;
64738;SDS011;51175;51.186;0.276;2023-03-12T00:11:10;4.05;;;3.20;;
64738;SDS011;51175;51.186;0.276;2023-03-12T00:11:43;4.07;;;2.83;;
64738;SDS011;51175;51.186;0.276;2023-03-12T00:12:13;4.15;;;3.25;;
64738;SDS011;51175;51.186;0.276;2023-03-12T00:12:43;5.25;;;3.42;;
64738;SDS011;51175;51.186;0.276;2023-03-12T00:13:14;4.57;;;3.70;;
64738;SDS011;51175;51.186;0.276;2023-03-12T00:13:47;4.72;;;3.40;;
64738;SDS011;51175;51.186;0.276;2023-03-12T00:14:21;4.35;;;3.72;;
64738;SDS011;51175;51.186;0.276;2023-03-12T00:14:52;4.82;;;3.97;;
64738;SDS011;51175;51.186;0.276;2023-03-12T00:15:22;5.80;;;3.70;;
64738;SDS011;51175;51.186;0.276;2023-03-12T00:15:53;4.72;;;3.55;;
64738;SDS011;51175;51.186;0.276;2023-03-12T00:16:23;5.20;;;3.47;;
64738;SDS011;51175;51.186;0.276;2023-03-12T00:16:54;4.47;;;3.42;;
64738;SDS011;51175;51.186;0.276;2023-03-12T00:17:24;4.10;;;3.53;;
64738;SDS011;51175;51.186;0.276;2023-03-12T00:17:55;4.53;;;3.42;;
64738;SDS011;51175;51.186;0.276;2023-03-12T00:18:25;4.25;;;3.53;;
64738;SDS011;51175;51.186;0.276;2023-03-12T00:18:55;3.80;;;2.92;;
64738;SDS011;51175;51.186;0.276;2023-03-12T00:19:26;5.75;;;3.72;;
64738;SDS011;51175;51.186;0.276;2023-03-12T00:19:56;4.38;;;3.15;;
64738;SDS011;51175;51.186;0.276;2023-03-12T00:20:27;3.95;;;3.35;;
64738;SDS011;51175;51.186;0.276;2023-03-12T00:20:57;4.93;;;3.55;;
64738;SDS011;51175;51.186;0.276;2023-03-12T00:21:27;4.07;;;3.40;;
64738;SDS011;51175;51.186;0.276;2023-03-12T00:21:58;6.45;;;3.63;;
64738;SDS011;51175;51.186;0.276;2023-03-12T00:22:28;4.45;;;3.33;;
64738;SDS011;51175;51.186;0.276;2023-03-12T00:22:58;4.53;;;3.20;;
64738;SDS011;51175;51.186;0.276;2023-03-12T00:23:29;5.43;;;4.40;;
64738;SDS011;51175;51.186;0.276;2023-03-12T00:24:00;4.53;;;3.10;;
64738;SDS011;51175;51.186;0.276;2023-03-12T00:24:30;4.25;;;2.90;;
64738;SDS011;51175;51.186;0.276;2023-03-12T00:25:01;3.22;;;2.70;;
64738;SDS011;51175;51.186;0.276;2023-03-12T00:25:31;3.80;;;2.90;;
64738;SDS011;51175;51.186;0.276;2023-03-12T00:26:03;3.85;;;2.85;;
64738;SDS011;51175;51.186;0.276;2023-03-12T00:26:35;3.83;;;3.08;;
64738;SDS011;51175;51.186;0.276;2023-03-12T00:27:05;3.85;;;3.08;;
64738;SDS011;51175;51.186;0.276;2023-03-12T00:27:36;3.85;;;3.33;;
64738;SDS011;51175;51.186;0.276;2023-03-12T00:28:06;4.22;;;3.33;;
64738;SDS011;51175;51.186;0.276;2023-03-12T00:28:37;4.32;;;2.80;;
64738;SDS011;51175;51.186;0.276;2023-03-12T00:29:08;4.00;;;3.53;;
64738;SDS011;51175;51.186;0.276;2023-03-12T00:29:38;3.30;;;3.00;;
64738;SDS011;51175;51.186;0.276;2023-03-12T00:30:09;4.05;;;3.05;;
64738;SDS011;51175;51.186;0.276;2023-03-12T00:30:40;3.95;;;3.10;;
64738;SDS011;51175;51.186;0.276;2023-03-12T00:31:20;3.83;;;3.28;;
64738;SDS011;51175;51.186;0.276;2023-03-12T00:31:57;4.35;;;3.05;;
64738;SDS011;51175;51.186;0.276;2023-03-12T00:32:28;4.25;;;3.45;;
64738;SDS011;51175;51.186;0.276;2023-03-12T00:32:58;4.30;;;3.05;;
64738;SDS011;51175;51.186;0.276;2023-03-12T00:33:28;4.80;;;3.13;;
64738;SDS011;51175;51.186;0.276;2023-03-12T00:34:00;4.45;;;3.05;;
64738;SDS011;51175;51.186;0.276;2023-03-12T00:34:31;3.38;;;2.70;;
64738;SDS011;51175;51.186;0.276;2023-03-12T00:35:01;4.20;;;3.20;;
64738;SDS011;51175;51.186;0.276;2023-03-12T00:35:32;4.65;;;3.70;;
64738;SDS011;51175;51.186;0.276;2023-03-12T00:36:02;3.88;;;3.05;;
64738;SDS011;51175;51.186;0.276;2023-03-12T00:36:33;4.25;;;2.97;;
64738;SDS011;51175;51.186;0.276;2023-03-12T00:37:03;3.22;;;2.58;;
64738;SDS011;51175;51.186;0.276;2023-03-12T00:37:34;4.03;;;3.00;;
64738;SDS011;51175;51.186;0.276;2023-03-12T00:38:05;3.90;;;3.00;;
64738;SDS011;51175;51.186;0.276;2023-03-12T00:38:36;4.88;;;3.45;;
64738;SDS011;51175;51.186;0.276;2023-03-12T00:39:06;3.80;;;2.85;;
64738;SDS011;51175;51.186;0.276;2023-03-12T00:39:36;4.15;;;3.00;;
64738;SDS011;51175;51.186;0.276;2023-03-12T00:40:07;4.65;;;3.45;;
64738;SDS011;51175;51.186;0.276;2023-03-12T00:40:39;4.10;;;3.35;;
64738;SDS011;51175;51.186;0.276;2023-03-12T00:41:10;3.92;;;3.13;;
64738;SDS011;51175;51.186;0.276;2023-03-12T00:41:40;5.00;;;3.67;;
64738;SDS011;51175;51.186;0.276;2023-03-12T00:42:11;5.20;;;3.80;;
64738;SDS011;51175;51.186;0.276;2023-03-12T00:42:41;5.10;;;3.58;;
64738;SDS011;51175;51.186;0.276;2023-03-12T00:43:11;4.68;;;3.38;;
64738;SDS011;51175;51.186;0.276;2023-03-12T00:43:42;4.55;;;3.30;;
64738;SDS011;51175;51.186;0.276;2023-03-12T00:44:12;3.80;;;2.88;;
64738;SDS011;51175;51.186;0.276;2023-03-12T00:44:43;4.55;;;3.22;;
64738;SDS011;51175;51.186;0.276;2023-03-12T00:45:14;4.60;;;3.28;;
64738;SDS011;51175;51.186;0.276;2023-03-12T00:45:44;5.03;;;3.38;;
64738;SDS011;51175;51.186;0.276;2023-03-12T00:46:15;3.83;;;2.83;;
64738;SDS011;51175;51.186;0.276;2023-03-12T00:46:45;4.85;;;3.67;;
64738;SDS011;51175;51.186;0.276;2023-03-12T00:47:16;4.00;;;3.60;;
64738;SDS011;51175;51.186;0.276;2023-03-12T00:47:46;4.15;;;3.20;;
64738;SDS011;51175;51.186;0.276;2023-03-12T00:48:16;4.28;;;3.50;;
64738;SDS011;51175;51.186;0.276;2023-03-12T00:48:47;3.72;;;3.10;;
64738;SDS011;51175;51.186;0.276;2023-03-12T00:49:18;4.35;;;3.33;;
64738;SDS011;51175;51.186;0.276;2023-03-12T00:49:48;4.20;;;2.90;;
64738;SDS011;51175;51.186;0.276;2023-03-12T00:50:19;3.80;;;2.63;;
64738;SDS011;51175;51.186;0.276;2023-03-12T00:50:49;4.05;;;2.75;;
64738;SDS011;51175;51.186;0.276;2023-03-12T00:51:19;4.47;;;3.53;;
64738;SDS011;51175;51.186;0.276;2023-03-12T00:51:50;4.60;;;3.40;;
64738;SDS011;51175;51.186;0.276;2023-03-12T00:52:20;4.00;;;3.15;;
64738;SDS011;51175;51.186;0.276;2023-03-12T00:52:51;4.00;;;2.90;;
64738;SDS011;51175;51.186;0.276;2023-03-12T00:53:21;4.22;;;3.40;;
64738;SDS011;51175;51.186;0.276;2023-03-12T00:53:51;5.75;;;3.67;;
64738;SDS011;51175;51.186;0.276;2023-03-12T00:54:22;3.72;;;3.10;;
64738;SDS011;51175;51.186;0.276;2023-03-12T00:54:52;4.00;;;3.30;;
64738;SDS011;51175;51.186;0.276;2023-03-12T00:55:27;3.78;;;3.20;;
64738;SDS011;51175;51.186;0.276;2023-03-12T00:55:57;4.30;;;3.63;;
64738;SDS011;51175;51.186;0.276;2023-03-12T00:56:27;4.70;;;3.13;;
64738;SDS011;51175;51.186;0.276;2023-03-12T00:56:58;3.92;;;2.60;;
64738;SDS011;51175;51.186;0.276;2023-03-12T00:57:30;6.45;;;4.00;;
64738;SDS011;51175;51.186;0.276;2023-03-12T00:58:01;4.95;;;3.55;;
64738;SDS011;51175;51.186;0.276;2023-03-12T00:58:31;5.65;;;3.60;;
64738;SDS011;51175;51.186;0.276;2023-03-12T00:59:01;5.20;;;3.92;;
64738;SDS011;51175;51.186;0.276;2023-03-12T00:59:32;4.60;;;3.72;;
64738;SDS011;51175;51.186;0.276;2023-03-12T01:00:02;4.30;;;3.60;;
64738;SDS011;51175;51.186;0.276;2023-03-12T01:00:39;5.05;;;3.15;;
64738;SDS011;51175;51.186;0.276;2023-03-12T01:01:09;4.72;;;3.20;;
64738;SDS011;51175;51.186;0.276;2023-03-12T01:01:40;4.93;;;3.65;;
64738;SDS011;51175;51.186;0.276;2023-03-12T01:02:11;4.70;;;3.30;;
64738;SDS011;51175;51.186;0.276;2023-03-12T01:02:41;4.65;;;3.25;;
64738;SDS011;51175;51.186;0.276;2023-03-12T01:03:12;4.20;;;3.13;;
64738;SDS011;51175;51.186;0.276;2023-03-12T01:03:42;4.80;;;3.65;;
64738;SDS011;51175;51.186;0.276;2023-03-12T01:04:13;4.32;;;3.35;;
64738;SDS011;51175;51.186;0.276;2023-03-12T01:04:43;4.45;;;3.33;;
64738;SDS011;51175;51.186;0.276;2023-03-12T01:05:14;4.68;;;3.45;;
64738;SDS011;51175;51.186;0.276;2023-03-12T01:05:45;5.60;;;3.83;;
64738;SDS011;51175;51.186;0.276;2023-03-12T01:06:15;4.25;;;2.95;;
64738;SDS011;51175;51.186;0.276;2023-03-12T01:06:46;4.40;;;2.78;;
64738;SDS011;51175;51.186;0.276;2023-03-12T01:07:16;4.30;;;3.30;;
64738;SDS011;51175;51.186;0.276;2023-03-12T01:07:47;4.70;;;3.53;;
64738;SDS011;51175;51.186;0.276;2023-03-12T01:08:17;5.47;;;3.45;;
64738;SDS011;51175;51.186;0.276;2023-03-12T01:08:47;5.68;;;3.28;;
64738;SDS011;51175;51.186;0.276;2023-03-12T01:09:18;4.18;;;3.13;;
64738;SDS011;51175;51.186;0.276;2023-03-12T01:09:48;6.05;;;3.67;;
64738;SDS011;51175;51.186;0.276;2023-03-12T01:10:19;4.20;;;3.03;;
64738;SDS011;51175;51.186;0.276;2023-03-12T01:10:49;3.97;;;2.92;;
64738;SDS011;51175;51.186;0.276;2023-03-12T01:11:20;5.05;;;3.60;;
64738;SDS011;51175;51.186;0.276;2023-03-12T01:11:51;5.00;;;3.65;;
64738;SDS011;51175;51.186;0.276;2023-03-12T01:12:21;5.68;;;3.88;;
64738;SDS011;51175;51.186;0.276;2023-03-12T01:12:52;5.93;;;3.72;;
64738;SDS011;51175;51.186;0.276;2023-03-12T01:13:22;6.43;;;4.30;;
64738;SDS011;51175;51.186;0.276;2023-03-12T01:13:52;5.45;;;3.88;;
64738;SDS011;51175;51.186;0.276;2023-03-12T01:14:23;4.40;;;3.15;;
64738;SDS011;51175;51.186;0.276;2023-03-12T01:14:53;5.97;;;4.38;;
64738;SDS011;51175;51.186;0.276;2023-03-12T01:15:24;6.30;;;4.15;;
64738;SDS011;51175;51.186;0.276;2023-03-12T01:15:54;5.10;;;3.55;;
64738;SDS011;51175;51.186;0.276;2023-03-12T01:16:25;4.72;;;3.67;;
64738;SDS011;51175;51.186;0.276;2023-03-12T01:16:58;5.75;;;3.47;;
64738;SDS011;51175;51.186;0.276;2023-03-12T01:17:29;5.30;;;3.40;;
64738;SDS011;51175;51.186;0.276;2023-03-12T01:17:59;6.45;;;3.40;;
64738;SDS011;51175;51.186;0.276;2023-03-12T01:18:29;4.78;;;3.95;;
64738;SDS011;51175;51.186;0.276;2023-03-12T01:19:01;5.45;;;4.18;;
64738;SDS011;51175;51.186;0.276;2023-03-12T01:19:31;5.80;;;3.85;;
64738;SDS011;51175;51.186;0.276;2023-03-12T01:20:02;5.80;;;4.25;;
64738;SDS011;51175;51.186;0.276;2023-03-12T01:20:34;6.05;;;4.35;;
64738;SDS011;51175;51.186;0.276;2023-03-12T01:21:05;5.13;;;4.07;;
64738;SDS011;51175;51.186;0.276;2023-03-12T01:21:35;6.60;;;3.70;;
64738;SDS011;51175;51.186;0.276;2023-03-12T01:22:05;4.40;;;3.25;;
64738;SDS011;51175;51.186;0.276;2023-03-12T01:22:36;5.28;;;3.97;;
64738;SDS011;51175;51.186;0.276;2023-03-12T01:23:06;5.32;;;4.15;;
64738;SDS011;51175;51.186;0.276;2023-03-12T01:23:37;5.45;;;3.65;;
64738;SDS011;51175;51.186;0.276;2023-03-12T01:24:07;4.93;;;3.45;;
64738;SDS011;51175;51.186;0.276;2023-03-12T01:24:38;5.95;;;3.80;;
64738;SDS011;51175;51.186;0.276;2023-03-12T01:25:09;8.43;;;4.88;;
64738;SDS011;51175;51.186;0.276;2023-03-12T01:25:40;5.68;;;4.30;;
64738;SDS011;51175;51.186;0.276;2023-03-12T01:26:10;4.82;;;4.13;;
64738;SDS011;51175;51.186;0.276;2023-03-12T01:26:41;5.72;;;4.22;;
64738;SDS011;51175;51.186;0.276;2023-03-12T01:27:11;6.35;;;4.20;;
64738;SDS011;51175;51.186;0.276;2023-03-12T01:27:42;5.85;;;3.97;;
64738;SDS011;51175;51.186;0.276;2023-03-12T01:28:12;6.88;;;4.53;;
64738;SDS011;51175;51.186;0.276;2023-03-12T01:28:43;6.75;;;4.35;;
64738;SDS011;51175;51.186;0.276;2023-03-12T01:29:14;6.10;;;4.10;;
64738;SDS011;51175;51.186;0.276;2023-03-12T01:29:44;7.13;;;4.68;;
64738;SDS011;51175;51.186;0.276;2023-03-12T01:30:14;6.03;;;4.10;;
64738;SDS011;51175;51.186;0.276;2023-03-12T01:30:45;5.95;;;4.45;;
64738;SDS011;51175;51.186;0.276;2023-03-12T01:31:16;7.20;;;4.90;;
64738;SDS011;51175;51.186;0.276;2023-03-12T01:31:47;6.40;;;4.60;;
64738;SDS011;51175;51.186;0.276;2023-03-12T01:32:18;6.53;;;4.43;;
64738;SDS011;51175;51.186;0.276;2023-03-12T01:32:48;7.82;;;4.45;;
64738;SDS011;51175;51.186;0.276;2023-03-12T01:33:18;6.10;;;4.35;;
64738;SDS011;51175;51.186;0.276;2023-03-12T01:33:52;7.22;;;4.30;;
64738;SDS011;51175;51.186;0.276;2023-03-12T01:34:23;7.57;;;4.63;;
64738;SDS011;51175;51.186;0.276;2023-03-12T01:34:53;6.22;;;4.55;;
64738;SDS011;51175;51.186;0.276;2023-03-12T01:35:24;6.80;;;4.47;;
64738;SDS011;51175;51.186;0.276;2023-03-12T01:35:54;8.18;;;4.93;;
64738;SDS011;51175;51.186;0.276;2023-03-12T01:36:26;7.15;;;4.85;;
64738;SDS011;51175;51.186;0.276;2023-03-12T01:36:58;8.43;;;5.28;;
64738;SDS011;51175;51.186;0.276;2023-03-12T01:37:28;6.80;;;5.22;;
64738;SDS011;51175;51.186;0.276;2023-03-12T01:37:59;5.70;;;4.43;;
64738;SDS011;51175;51.186;0.276;2023-03-12T01:38:29;8.02;;;4.90;;
64738;SDS011;51175;51.186;0.276;2023-03-12T01:38:59;8.48;;;4.57;;
64738;SDS011;51175;51.186;0.276;2023-03-12T01:39:30;9.23;;;5.43;;
64738;SDS011;51175;51.186;0.276;2023-03-12T01:40:00;8.30;;;6.03;;
64738;SDS011;51175;51.186;0.276;2023-03-12T01:40:32;7.63;;;5.28;;
64738;SDS011;51175;51.186;0.276;2023-03-12T01:41:04;7.55;;;4.28;;
64738;SDS011;51175;51.186;0.276;2023-03-12T01:41:34;8.10;;;4.95;;
64738;SDS011;51175;51.186;0.276;2023-03-12T01:42:05;10.02;;;5.43;;
64738;SDS011;51175;51.186;0.276;2023-03-12T01:42:35;10.63;;;5.70;;
64738;SDS011;51175;51.186;0.276;2023-03-12T01:43:23;8.32;;;5.80;;
64738;SDS011;51175;51.186;0.276;2023-03-12T01:43:56;9.45;;;5.85;;
64738;SDS011;51175;51.186;0.276;2023-03-12T01:44:27;6.75;;;4.32;;
64738;SDS011;51175;51.186;0.276;2023-03-12T01:44:59;9.00;;;5.40;;
64738;SDS011;51175;51.186;0.276;2023-03-12T01:46:22;6.65;;;4.20;;
64738;SDS011;51175;51.186;0.276;2023-03-12T01:46:53;8.88;;;5.20;;
64738;SDS011;51175;51.186;0.276;2023-03-12T01:47:23;9.15;;;5.35;;
64738;SDS011;51175;51.186;0.276;2023-03-12T01:47:55;8.55;;;5.13;;
64738;SDS011;51175;51.186;0.276;2023-03-12T01:48:29;9.35;;;5.95;;
64738;SDS011;51175;51.186;0.276;2023-03-12T01:49:14;7.97;;;5.28;;
